createdAt,value
2016-11-13T00:00:25.878Z,0
2016-11-13T00:01:26.009Z,0
2016-11-13T00:02:26.157Z,0
2016-11-13T00:03:25.867Z,0
2016-11-13T00:04:25.880Z,0
2016-11-13T00:05:25.867Z,0
2016-11-13T00:06:26.918Z,0
2016-11-13T00:07:25.883Z,0
2016-11-13T00:08:26.003Z,0
2016-11-13T00:09:25.901Z,0
2016-11-13T00:10:26.739Z,0
2016-11-13T00:11:26.027Z,0
2016-11-13T00:12:27.190Z,0
2016-11-13T00:13:26.399Z,0
2016-11-13T00:14:25.883Z,0
2016-11-13T00:15:27.042Z,0
2016-11-13T00:16:25.903Z,0
2016-11-13T00:17:26.883Z,0
2016-11-13T00:18:26.429Z,0
2016-11-13T00:19:26.583Z,0
2016-11-13T00:20:26.270Z,0
2016-11-13T00:21:25.883Z,0
2016-11-13T00:22:26.405Z,0
2016-11-13T00:23:25.915Z,0
2016-11-13T00:24:25.929Z,0
2016-11-13T00:25:26.572Z,0
2016-11-13T00:26:26.294Z,0
2016-11-13T00:27:25.898Z,0
2016-11-13T00:28:25.923Z,0
2016-11-13T00:29:25.949Z,0
2016-11-13T00:30:25.871Z,0
2016-11-13T00:31:25.897Z,0
2016-11-13T00:32:25.904Z,0
2016-11-13T00:33:25.890Z,0
2016-11-13T00:34:26.282Z,0
2016-11-13T00:35:25.935Z,0
2016-11-13T00:36:25.958Z,0
2016-11-13T00:37:25.996Z,0
2016-11-13T00:38:25.900Z,0
2016-11-13T00:39:25.904Z,0
2016-11-13T00:40:25.925Z,0
2016-11-13T00:41:26.369Z,0
2016-11-13T00:42:25.926Z,0
2016-11-13T00:43:25.962Z,0
2016-11-13T00:44:25.913Z,0
2016-11-13T00:45:25.954Z,0
2016-11-13T00:46:26.026Z,0
2016-11-13T00:47:25.918Z,0
2016-11-13T00:48:25.959Z,0
2016-11-13T00:49:26.520Z,0
2016-11-13T00:50:26.163Z,0
2016-11-13T00:51:25.915Z,0
2016-11-13T00:52:25.927Z,0
2016-11-13T00:53:25.904Z,0
2016-11-13T00:54:25.996Z,0
2016-11-13T00:55:25.910Z,0
2016-11-13T00:56:25.957Z,0
2016-11-13T00:57:25.915Z,0
2016-11-13T00:58:25.899Z,0
2016-11-13T00:59:25.941Z,0
2016-11-13T01:00:25.919Z,0
2016-11-13T01:01:25.900Z,0
2016-11-13T01:02:25.914Z,0
2016-11-13T01:03:25.893Z,0
2016-11-13T01:04:25.939Z,0
2016-11-13T01:05:25.913Z,0
2016-11-13T01:06:25.919Z,0
2016-11-13T01:07:25.954Z,0
2016-11-13T01:08:25.913Z,0
2016-11-13T01:09:25.952Z,0
2016-11-13T01:10:25.916Z,0
2016-11-13T01:11:26.041Z,0
2016-11-13T01:12:25.959Z,0
2016-11-13T01:13:25.909Z,0
2016-11-13T01:14:26.079Z,0
2016-11-13T01:15:25.943Z,0
2016-11-13T01:16:25.914Z,0
2016-11-13T01:17:25.927Z,0
2016-11-13T01:18:25.948Z,0
2016-11-13T01:19:25.926Z,0
2016-11-13T01:20:25.931Z,0
2016-11-13T01:21:26.085Z,0
2016-11-13T01:22:25.946Z,0
2016-11-13T01:23:25.929Z,0
2016-11-13T01:24:25.926Z,0
2016-11-13T01:25:25.967Z,0
2016-11-13T01:26:25.968Z,0
2016-11-13T01:27:25.992Z,0
2016-11-13T01:28:25.931Z,0
2016-11-13T01:29:25.904Z,0
2016-11-13T01:30:25.919Z,0
2016-11-13T01:31:25.912Z,0
2016-11-13T01:32:25.931Z,0
2016-11-13T01:33:25.910Z,0
2016-11-13T01:34:25.980Z,0
2016-11-13T01:35:25.910Z,0
2016-11-13T01:36:25.925Z,0
2016-11-13T01:37:25.965Z,0
2016-11-13T01:38:26.002Z,0
2016-11-13T01:39:26.172Z,0
2016-11-13T01:40:25.986Z,0
2016-11-13T01:41:25.952Z,0
2016-11-13T01:42:25.979Z,0
2016-11-13T01:43:26.281Z,0
2016-11-13T01:44:25.935Z,0
2016-11-13T01:45:25.992Z,0
2016-11-13T01:46:26.370Z,0
2016-11-13T01:47:25.950Z,0
2016-11-13T01:48:25.964Z,0
2016-11-13T01:49:25.923Z,0
2016-11-13T01:50:26.178Z,0
2016-11-13T01:51:25.945Z,0
2016-11-13T01:52:25.922Z,0
2016-11-13T01:53:25.933Z,0
2016-11-13T01:54:25.949Z,0
2016-11-13T01:55:25.935Z,0
2016-11-13T01:56:25.963Z,0
2016-11-13T01:57:26.314Z,0
2016-11-13T01:58:25.919Z,0
2016-11-13T01:59:25.925Z,0
2016-11-13T02:00:25.970Z,0
2016-11-13T02:01:26.270Z,0
2016-11-13T02:02:25.941Z,0
2016-11-13T02:03:26.002Z,0
2016-11-13T02:04:25.960Z,0
2016-11-13T02:05:26.002Z,0
2016-11-13T02:06:25.975Z,0
2016-11-13T02:07:25.973Z,0
2016-11-13T02:08:26.047Z,0
2016-11-13T02:09:25.970Z,0
2016-11-13T02:10:25.958Z,0
2016-11-13T02:11:25.984Z,0
2016-11-13T02:12:25.966Z,0
2016-11-13T02:13:25.938Z,0
2016-11-13T02:14:26.034Z,0
2016-11-13T02:15:26.040Z,0
2016-11-13T02:16:25.995Z,0
2016-11-13T02:17:25.960Z,0
2016-11-13T02:18:25.980Z,0
2016-11-13T02:19:25.970Z,0
2016-11-13T02:20:26.009Z,0
2016-11-13T02:21:25.942Z,0
2016-11-13T02:22:25.935Z,0
2016-11-13T02:23:25.971Z,0
2016-11-13T02:24:26.373Z,0
2016-11-13T02:25:25.980Z,0
2016-11-13T02:26:25.952Z,0
2016-11-13T02:27:25.941Z,0
2016-11-13T02:28:26.209Z,0
2016-11-13T02:29:25.948Z,0
2016-11-13T02:30:25.960Z,0
2016-11-13T02:31:26.374Z,0
2016-11-13T02:32:26.421Z,0
2016-11-13T02:33:26.076Z,0
2016-11-13T02:34:26.028Z,0
2016-11-13T02:35:26.034Z,0
2016-11-13T02:36:26.109Z,0
2016-11-13T02:37:25.950Z,0
2016-11-13T02:38:26.985Z,0
2016-11-13T02:39:26.188Z,0
2016-11-13T02:40:26.014Z,0
2016-11-13T02:41:26.021Z,0
2016-11-13T02:42:25.969Z,0
2016-11-13T02:43:26.038Z,0
2016-11-13T02:44:25.960Z,0
2016-11-13T02:45:26.006Z,0
2016-11-13T02:46:25.980Z,0
2016-11-13T02:47:26.069Z,0
2016-11-13T02:48:25.969Z,0
2016-11-13T02:49:25.976Z,0
2016-11-13T02:50:25.942Z,0
2016-11-13T02:51:25.985Z,0
2016-11-13T02:52:25.983Z,0
2016-11-13T02:53:25.992Z,0
2016-11-13T02:54:25.955Z,0
2016-11-13T02:55:25.929Z,0
2016-11-13T02:56:25.984Z,0
2016-11-13T02:57:25.979Z,0
2016-11-13T02:58:25.964Z,0
2016-11-13T02:59:25.971Z,0
2016-11-13T03:00:25.960Z,0
2016-11-13T03:01:25.983Z,0
2016-11-13T03:02:25.982Z,0
2016-11-13T03:03:26.078Z,0
2016-11-13T03:04:25.987Z,0
2016-11-13T03:05:26.002Z,0
2016-11-13T03:06:26.049Z,0
2016-11-13T03:07:25.999Z,0
2016-11-13T03:08:25.966Z,0
2016-11-13T03:09:26.054Z,0
2016-11-13T03:10:26.016Z,0
2016-11-13T03:11:26.024Z,0
2016-11-13T03:12:26.031Z,0
2016-11-13T03:13:25.993Z,0
2016-11-13T03:14:26.003Z,0
2016-11-13T03:15:26.143Z,0
2016-11-13T03:16:26.035Z,0
2016-11-13T03:17:26.108Z,0
2016-11-13T03:18:26.049Z,0
2016-11-13T03:19:26.147Z,0
2016-11-13T03:20:26.121Z,0
2016-11-13T03:21:26.000Z,0
2016-11-13T03:22:26.011Z,0
2016-11-13T03:23:26.002Z,0
2016-11-13T03:24:26.059Z,0
2016-11-13T03:25:26.069Z,0
2016-11-13T03:26:26.088Z,0
2016-11-13T03:27:26.022Z,0
2016-11-13T03:28:26.087Z,0
2016-11-13T03:29:26.055Z,0
2016-11-13T03:30:26.012Z,0
2016-11-13T03:31:26.009Z,0
2016-11-13T03:32:25.989Z,0
2016-11-13T03:33:25.995Z,0
2016-11-13T03:34:26.016Z,0
2016-11-13T03:35:26.008Z,0
2016-11-13T03:36:26.059Z,0
2016-11-13T03:37:26.047Z,0
2016-11-13T03:38:26.010Z,0
2016-11-13T03:39:26.001Z,0
2016-11-13T03:40:25.997Z,0
2016-11-13T03:41:26.073Z,0
2016-11-13T03:42:26.041Z,0
2016-11-13T03:43:26.028Z,0
2016-11-13T03:44:26.091Z,0
2016-11-13T03:45:26.040Z,0
2016-11-13T03:46:26.098Z,0
2016-11-13T03:47:26.027Z,0
2016-11-13T03:48:26.011Z,0
2016-11-13T03:49:26.065Z,0
2016-11-13T03:50:26.021Z,0
2016-11-13T03:51:26.080Z,0
2016-11-13T03:52:26.056Z,0
2016-11-13T03:53:26.027Z,0
2016-11-13T03:54:26.909Z,0
2016-11-13T03:55:26.120Z,0
2016-11-13T03:56:26.067Z,0
2016-11-13T03:57:26.059Z,0
2016-11-13T03:58:26.733Z,0
2016-11-13T03:59:26.115Z,0
2016-11-13T04:00:26.088Z,0
2016-11-13T04:01:26.126Z,0
2016-11-13T04:02:26.141Z,0
2016-11-13T04:03:26.181Z,0
2016-11-13T04:04:26.094Z,0
2016-11-13T04:05:26.118Z,0
2016-11-13T04:06:26.121Z,0
2016-11-13T04:07:26.127Z,0
2016-11-13T04:08:26.158Z,0
2016-11-13T04:09:27.039Z,0
2016-11-13T04:10:26.121Z,0
2016-11-13T04:11:26.163Z,0
2016-11-13T04:12:26.155Z,0
2016-11-13T04:13:26.123Z,0
2016-11-13T04:14:26.142Z,0
2016-11-13T04:15:26.224Z,0
2016-11-13T04:16:26.226Z,0
2016-11-13T04:17:26.311Z,0
2016-11-13T04:18:26.332Z,0
2016-11-13T04:19:26.237Z,0
2016-11-13T04:20:26.614Z,0
2016-11-13T04:21:26.718Z,0
2016-11-13T04:22:26.167Z,0
2016-11-13T04:23:26.169Z,0
2016-11-13T04:24:26.189Z,0
2016-11-13T04:25:26.684Z,0
2016-11-13T04:26:26.230Z,0
2016-11-13T04:27:26.226Z,0
2016-11-13T04:28:26.194Z,0
2016-11-13T04:29:26.219Z,0
2016-11-13T04:30:26.812Z,0
2016-11-13T04:31:26.717Z,0
2016-11-13T04:32:26.693Z,0
2016-11-13T04:33:26.220Z,0
2016-11-13T04:34:26.347Z,0
2016-11-13T04:35:26.804Z,0
2016-11-13T04:36:26.971Z,0
2016-11-13T04:37:26.219Z,0
2016-11-13T04:38:27.205Z,0
2016-11-13T04:39:26.262Z,0
2016-11-13T04:40:26.140Z,0
2016-11-13T04:41:26.279Z,0
2016-11-13T04:42:26.239Z,0
2016-11-13T04:43:26.144Z,0
2016-11-13T04:44:26.235Z,0
2016-11-13T04:45:26.217Z,0
2016-11-13T04:46:26.284Z,0
2016-11-13T04:47:26.265Z,0
2016-11-13T04:48:26.347Z,0
2016-11-13T04:49:26.666Z,0
2016-11-13T04:50:26.270Z,0
2016-11-13T04:51:26.044Z,0
2016-11-13T04:52:26.198Z,0
2016-11-13T04:53:26.060Z,0
2016-11-13T04:54:26.069Z,0
2016-11-13T04:55:26.077Z,0
2016-11-13T04:56:26.355Z,0
2016-11-13T04:57:26.037Z,0
2016-11-13T04:58:26.060Z,0
2016-11-13T04:59:26.105Z,0
2016-11-13T05:00:26.090Z,0
2016-11-13T05:01:26.096Z,0
2016-11-13T05:02:26.099Z,0
2016-11-13T05:03:26.102Z,0
2016-11-13T05:04:26.144Z,0
2016-11-13T05:05:26.095Z,0
2016-11-13T05:06:26.086Z,0
2016-11-13T05:07:26.124Z,0
2016-11-13T05:08:26.100Z,0
2016-11-13T05:09:26.152Z,0
2016-11-13T05:10:26.144Z,0
2016-11-13T05:11:26.115Z,0
2016-11-13T05:12:26.136Z,0
2016-11-13T05:13:26.107Z,0
2016-11-13T05:14:26.086Z,0
2016-11-13T05:15:26.082Z,0
2016-11-13T05:16:26.083Z,0
2016-11-13T05:17:26.072Z,0
2016-11-13T05:18:26.072Z,0
2016-11-13T05:19:26.161Z,0
2016-11-13T05:20:26.148Z,0
2016-11-13T05:21:26.115Z,0
2016-11-13T05:22:26.090Z,0
2016-11-13T05:23:26.117Z,0
2016-11-13T05:24:26.102Z,0
2016-11-13T05:25:26.092Z,0
2016-11-13T05:26:26.093Z,0
2016-11-13T05:27:26.109Z,0
2016-11-13T05:28:26.098Z,0
2016-11-13T05:29:26.101Z,0
2016-11-13T05:30:26.095Z,0
2016-11-13T05:31:26.109Z,0
2016-11-13T05:32:26.099Z,0
2016-11-13T05:33:26.079Z,0
2016-11-13T05:34:26.140Z,0
2016-11-13T05:35:26.108Z,0
2016-11-13T05:36:26.154Z,0
2016-11-13T05:37:26.088Z,0
2016-11-13T05:38:26.142Z,0
2016-11-13T05:39:26.127Z,0
2016-11-13T05:40:26.095Z,0
2016-11-13T05:41:26.138Z,0
2016-11-13T05:42:26.128Z,0
2016-11-13T05:43:26.079Z,0
2016-11-13T05:44:26.089Z,0
2016-11-13T05:45:26.070Z,0
2016-11-13T05:46:26.112Z,0
2016-11-13T05:47:26.095Z,0
2016-11-13T05:48:26.116Z,0
2016-11-13T05:49:26.102Z,0
2016-11-13T05:50:26.094Z,0
2016-11-13T05:51:26.148Z,0
2016-11-13T05:52:26.090Z,0
2016-11-13T05:53:26.113Z,0
2016-11-13T05:54:26.153Z,0
2016-11-13T05:55:26.073Z,0
2016-11-13T05:56:26.132Z,0
2016-11-13T05:57:26.111Z,0
2016-11-13T05:58:26.109Z,0
2016-11-13T05:59:26.157Z,0
2016-11-13T06:00:26.162Z,0
2016-11-13T06:01:26.127Z,0
2016-11-13T06:02:26.191Z,0
2016-11-13T06:03:26.121Z,0
2016-11-13T06:04:26.073Z,0
2016-11-13T06:05:26.092Z,0
2016-11-13T06:06:26.144Z,0
2016-11-13T06:07:26.133Z,0
2016-11-13T06:08:26.185Z,0
2016-11-13T06:09:26.170Z,0
2016-11-13T06:10:26.105Z,0
2016-11-13T06:11:26.132Z,0
2016-11-13T06:12:26.124Z,0
2016-11-13T06:13:26.144Z,4
2016-11-13T06:14:26.096Z,4
2016-11-13T06:15:26.113Z,0
2016-11-13T06:16:26.113Z,0
2016-11-13T06:17:26.177Z,4
2016-11-13T06:18:26.093Z,4
2016-11-13T06:19:26.189Z,4
2016-11-13T06:20:26.166Z,4
2016-11-13T06:21:26.150Z,8
2016-11-13T06:22:26.109Z,8
2016-11-13T06:23:26.188Z,8
2016-11-13T06:24:26.169Z,8
2016-11-13T06:25:26.191Z,12
2016-11-13T06:26:26.162Z,12
2016-11-13T06:27:26.124Z,16
2016-11-13T06:28:26.098Z,20
2016-11-13T06:29:26.800Z,24
2016-11-13T06:30:26.144Z,28
2016-11-13T06:31:26.161Z,32
2016-11-13T06:32:26.153Z,36
2016-11-13T06:33:26.224Z,40
2016-11-13T06:34:26.120Z,48
2016-11-13T06:35:26.118Z,56
2016-11-13T06:36:26.150Z,68
2016-11-13T06:37:26.218Z,84
2016-11-13T06:38:26.092Z,92
2016-11-13T06:39:26.191Z,96
2016-11-13T06:40:26.137Z,100
2016-11-13T06:41:26.111Z,104
2016-11-13T06:42:26.116Z,108
2016-11-13T06:43:26.126Z,112
2016-11-13T06:44:26.137Z,124
2016-11-13T06:45:26.122Z,140
2016-11-13T06:46:26.166Z,156
2016-11-13T06:47:26.173Z,172
2016-11-13T06:48:26.135Z,196
2016-11-13T06:49:26.118Z,216
2016-11-13T06:50:26.157Z,240
2016-11-13T06:51:26.141Z,264
2016-11-13T06:52:26.115Z,288
2016-11-13T06:53:26.156Z,308
2016-11-13T06:54:26.133Z,328
2016-11-13T06:55:26.123Z,352
2016-11-13T06:56:26.137Z,368
2016-11-13T06:57:26.181Z,384
2016-11-13T06:58:26.169Z,396
2016-11-13T06:59:26.188Z,408
2016-11-13T07:00:26.168Z,428
2016-11-13T07:01:26.149Z,444
2016-11-13T07:02:26.138Z,468
2016-11-13T07:03:26.769Z,488
2016-11-13T07:04:26.163Z,512
2016-11-13T07:05:26.153Z,532
2016-11-13T07:06:26.149Z,564
2016-11-13T07:07:26.166Z,600
2016-11-13T07:08:26.147Z,640
2016-11-13T07:09:26.136Z,680
2016-11-13T07:10:26.154Z,712
2016-11-13T07:11:26.128Z,744
2016-11-13T07:12:26.152Z,772
2016-11-13T07:13:26.163Z,796
2016-11-13T07:14:26.123Z,816
2016-11-13T07:15:26.208Z,840
2016-11-13T07:16:26.146Z,876
2016-11-13T07:17:26.173Z,900
2016-11-13T07:18:26.681Z,904
2016-11-13T07:19:26.146Z,900
2016-11-13T07:20:26.155Z,888
2016-11-13T07:21:26.131Z,880
2016-11-13T07:22:26.143Z,880
2016-11-13T07:23:26.140Z,900
2016-11-13T07:24:26.153Z,944
2016-11-13T07:25:26.188Z,1000
2016-11-13T07:26:26.135Z,1052
2016-11-13T07:27:26.137Z,1092
2016-11-13T07:28:26.163Z,1128
2016-11-13T07:29:26.182Z,1172
2016-11-13T07:30:26.134Z,1232
2016-11-13T07:31:26.166Z,1312
2016-11-13T07:32:26.208Z,1400
2016-11-13T07:33:26.149Z,1496
2016-11-13T07:34:26.160Z,1580
2016-11-13T07:35:26.175Z,1648
2016-11-13T07:36:26.259Z,1712
2016-11-13T07:37:26.197Z,1772
2016-11-13T07:38:26.204Z,1824
2016-11-13T07:39:26.216Z,1860
2016-11-13T07:40:26.185Z,1888
2016-11-13T07:41:26.226Z,1908
2016-11-13T07:42:26.232Z,1920
2016-11-13T07:43:26.183Z,1940
2016-11-13T07:44:26.191Z,1960
2016-11-13T07:45:26.235Z,1980
2016-11-13T07:46:26.186Z,1992
2016-11-13T07:47:26.183Z,2000
2016-11-13T07:48:26.182Z,2008
2016-11-13T07:49:26.191Z,2008
2016-11-13T07:50:26.166Z,2016
2016-11-13T07:51:26.190Z,2032
2016-11-13T07:52:26.196Z,2052
2016-11-13T07:53:26.208Z,2080
2016-11-13T07:54:26.294Z,2112
2016-11-13T07:55:26.320Z,2156
2016-11-13T07:56:26.234Z,2204
2016-11-13T07:57:26.253Z,2256
2016-11-13T07:58:26.223Z,2312
2016-11-13T07:59:26.281Z,2372
2016-11-13T08:00:26.221Z,2448
2016-11-13T08:01:26.172Z,2528
2016-11-13T08:02:26.213Z,2608
2016-11-13T08:03:26.183Z,2684
2016-11-13T08:04:26.288Z,2756
2016-11-13T08:05:26.215Z,2812
2016-11-13T08:06:26.159Z,2852
2016-11-13T08:07:26.182Z,2868
2016-11-13T08:08:26.172Z,2876
2016-11-13T08:09:26.168Z,2876
2016-11-13T08:10:26.186Z,2880
2016-11-13T08:11:26.165Z,2888
2016-11-13T08:12:26.185Z,2896
2016-11-13T08:13:26.194Z,2916
2016-11-13T08:14:26.287Z,2944
2016-11-13T08:15:26.243Z,2984
2016-11-13T08:16:26.233Z,3044
2016-11-13T08:17:26.253Z,3124
2016-11-13T08:18:26.240Z,3212
2016-11-13T08:19:26.245Z,3316
2016-11-13T08:20:26.277Z,3420
2016-11-13T08:21:26.242Z,3524
2016-11-13T08:22:26.217Z,3604
2016-11-13T08:23:26.185Z,3684
2016-11-13T08:24:26.240Z,3748
2016-11-13T08:25:26.220Z,3792
2016-11-13T08:26:26.227Z,3820
2016-11-13T08:27:26.210Z,3840
2016-11-13T08:28:26.193Z,3852
2016-11-13T08:29:26.207Z,3868
2016-11-13T08:30:26.200Z,3896
2016-11-13T08:31:26.211Z,3924
2016-11-13T08:32:26.223Z,3960
2016-11-13T08:33:26.177Z,4012
2016-11-13T08:34:26.234Z,4072
2016-11-13T08:35:26.195Z,4136
2016-11-13T08:36:26.809Z,4208
2016-11-13T08:37:26.195Z,4276
2016-11-13T08:38:26.241Z,4336
2016-11-13T08:39:26.208Z,4384
2016-11-13T08:40:26.207Z,4408
2016-11-13T08:41:26.200Z,4412
2016-11-13T08:42:26.227Z,4408
2016-11-13T08:43:26.200Z,4408
2016-11-13T08:44:26.242Z,4416
2016-11-13T08:45:26.245Z,4432
2016-11-13T08:46:26.201Z,4464
2016-11-13T08:47:26.224Z,4516
2016-11-13T08:48:26.246Z,4584
2016-11-13T08:49:26.264Z,4648
2016-11-13T08:50:26.220Z,4712
2016-11-13T08:51:26.264Z,4776
2016-11-13T08:52:26.820Z,4852
2016-11-13T08:53:26.303Z,4952
2016-11-13T08:54:26.294Z,5068
2016-11-13T08:55:26.306Z,5196
2016-11-13T08:56:26.332Z,5320
2016-11-13T08:57:26.392Z,5436
2016-11-13T08:58:26.319Z,5532
2016-11-13T08:59:26.304Z,5604
2016-11-13T09:00:26.519Z,5596
2016-11-13T09:01:27.205Z,5612
2016-11-13T09:02:26.339Z,5612
2016-11-13T09:03:26.319Z,5600
2016-11-13T09:04:26.399Z,5612
2016-11-13T09:05:26.364Z,5640
2016-11-13T09:06:26.458Z,5680
2016-11-13T09:07:26.401Z,5736
2016-11-13T09:08:26.967Z,5776
2016-11-13T09:09:26.516Z,5784
2016-11-13T09:10:26.365Z,5776
2016-11-13T09:11:26.463Z,5756
2016-11-13T09:12:26.527Z,5724
2016-11-13T09:13:26.383Z,5696
2016-11-13T09:14:26.425Z,5668
2016-11-13T09:15:26.389Z,5660
2016-11-13T09:16:26.422Z,5668
2016-11-13T09:17:26.445Z,5700
2016-11-13T09:18:27.016Z,5756
2016-11-13T09:19:26.482Z,5836
2016-11-13T09:20:26.700Z,5948
2016-11-13T09:21:27.058Z,6064
2016-11-13T09:22:26.447Z,6184
2016-11-13T09:23:26.421Z,6312
2016-11-13T09:24:26.421Z,6448
2016-11-13T09:25:26.615Z,6592
2016-11-13T09:26:26.407Z,6736
2016-11-13T09:27:27.010Z,6876
2016-11-13T09:28:26.490Z,6996
2016-11-13T09:29:26.946Z,7100
2016-11-13T09:30:26.393Z,7188
2016-11-13T09:31:26.575Z,7236
2016-11-13T09:32:26.460Z,7272
2016-11-13T09:33:26.687Z,7280
2016-11-13T09:34:26.408Z,7284
2016-11-13T09:35:26.490Z,7304
2016-11-13T09:36:26.546Z,7348
2016-11-13T09:37:26.376Z,7404
2016-11-13T09:38:26.504Z,7460
2016-11-13T09:39:26.924Z,7512
2016-11-13T09:40:26.522Z,7560
2016-11-13T09:41:26.792Z,7572
2016-11-13T09:42:26.514Z,7556
2016-11-13T09:43:27.187Z,7504
2016-11-13T09:44:26.556Z,7432
2016-11-13T09:45:26.995Z,7360
2016-11-13T09:46:26.997Z,7284
2016-11-13T09:47:26.322Z,7216
2016-11-13T09:48:26.256Z,7148
2016-11-13T09:49:26.514Z,7056
2016-11-13T09:50:26.252Z,7012
2016-11-13T09:51:26.239Z,6968
2016-11-13T09:52:26.255Z,6924
2016-11-13T09:53:26.316Z,6896
2016-11-13T09:54:26.297Z,6872
2016-11-13T09:55:26.233Z,6864
2016-11-13T09:56:26.271Z,6872
2016-11-13T09:57:26.256Z,6892
2016-11-13T09:58:26.277Z,6916
2016-11-13T09:59:26.258Z,6936
2016-11-13T10:00:26.956Z,6948
2016-11-13T10:01:26.266Z,6956
2016-11-13T10:02:27.050Z,6952
2016-11-13T10:03:26.301Z,6956
2016-11-13T10:04:26.253Z,6960
2016-11-13T10:05:26.256Z,6960
2016-11-13T10:06:26.275Z,6956
2016-11-13T10:07:26.267Z,6948
2016-11-13T10:08:26.224Z,6940
2016-11-13T10:09:26.338Z,6944
2016-11-13T10:10:26.298Z,6956
2016-11-13T10:11:26.246Z,6988
2016-11-13T10:12:26.320Z,7024
2016-11-13T10:13:26.336Z,7072
2016-11-13T10:14:26.312Z,7120
2016-11-13T10:15:26.357Z,7176
2016-11-13T10:16:26.291Z,7232
2016-11-13T10:17:26.351Z,7284
2016-11-13T10:18:26.323Z,7348
2016-11-13T10:19:26.227Z,7416
2016-11-13T10:20:26.416Z,7500
2016-11-13T10:21:26.249Z,7600
2016-11-13T10:22:26.264Z,7696
2016-11-13T10:23:26.254Z,7788
2016-11-13T10:24:26.306Z,7880
2016-11-13T10:25:26.297Z,7976
2016-11-13T10:26:26.377Z,8064
2016-11-13T10:27:27.277Z,8160
2016-11-13T10:28:26.386Z,8252
2016-11-13T10:29:27.071Z,8336
2016-11-13T10:30:26.416Z,8416
2016-11-13T10:31:26.296Z,8484
2016-11-13T10:32:26.293Z,8532
2016-11-13T10:33:26.347Z,8576
2016-11-13T10:34:26.370Z,8616
2016-11-13T10:35:26.386Z,8676
2016-11-13T10:36:26.316Z,8740
2016-11-13T10:37:26.316Z,8792
2016-11-13T10:38:26.351Z,8848
2016-11-13T10:39:26.351Z,8892
2016-11-13T10:40:26.318Z,8924
2016-11-13T10:41:26.284Z,8936
2016-11-13T10:42:26.292Z,8920
2016-11-13T10:43:26.332Z,8876
2016-11-13T10:44:26.306Z,8816
2016-11-13T10:45:26.329Z,8748
2016-11-13T10:46:26.279Z,8680
2016-11-13T10:47:26.241Z,8616
2016-11-13T10:48:26.295Z,8552
2016-11-13T10:49:26.348Z,8500
2016-11-13T10:50:26.307Z,8452
2016-11-13T10:51:26.273Z,8412
2016-11-13T10:52:26.304Z,8384
2016-11-13T10:53:26.285Z,8356
2016-11-13T10:54:26.425Z,8344
2016-11-13T10:55:26.399Z,8336
2016-11-13T10:56:26.348Z,8340
2016-11-13T10:57:26.299Z,8348
2016-11-13T10:58:26.309Z,8360
2016-11-13T10:59:26.354Z,8368
2016-11-13T11:00:26.332Z,8368
2016-11-13T11:01:26.304Z,8364
2016-11-13T11:02:26.492Z,8364
2016-11-13T11:03:27.299Z,8336
2016-11-13T11:04:26.304Z,8308
2016-11-13T11:05:26.349Z,8276
2016-11-13T11:06:26.282Z,8244
2016-11-13T11:07:26.309Z,8204
2016-11-13T11:08:26.310Z,8160
2016-11-13T11:09:26.324Z,8116
2016-11-13T11:10:26.451Z,8080
2016-11-13T11:11:26.338Z,8036
2016-11-13T11:12:26.334Z,7992
2016-11-13T11:13:26.329Z,7944
2016-11-13T11:14:26.334Z,7896
2016-11-13T11:15:26.297Z,7848
2016-11-13T11:16:26.290Z,7808
2016-11-13T11:17:26.312Z,7768
2016-11-13T11:18:26.290Z,7740
2016-11-13T11:19:26.942Z,7712
2016-11-13T11:20:26.324Z,7704
2016-11-13T11:21:26.329Z,7708
2016-11-13T11:22:28.996Z,7724
2016-11-13T11:23:27.535Z,7748
2016-11-13T11:24:27.225Z,7780
2016-11-13T11:25:40.359Z,7828
2016-11-13T11:26:30.852Z,7864
2016-11-13T11:27:26.293Z,7892
2016-11-13T11:28:26.319Z,7924
2016-11-13T11:29:26.301Z,7944
2016-11-13T11:30:26.322Z,7960
2016-11-13T11:31:26.315Z,7972
2016-11-13T11:32:26.293Z,7984
2016-11-13T11:33:26.311Z,7992
2016-11-13T11:34:26.896Z,8008
2016-11-13T11:35:26.294Z,8012
2016-11-13T11:36:26.319Z,8008
2016-11-13T11:37:26.386Z,8000
2016-11-13T11:38:26.313Z,7988
2016-11-13T11:39:26.313Z,7968
2016-11-13T11:40:26.317Z,7948
2016-11-13T11:41:26.335Z,7920
2016-11-13T11:42:26.355Z,7884
2016-11-13T11:43:26.324Z,7848
2016-11-13T11:44:27.042Z,7812
2016-11-13T11:45:26.357Z,7776
2016-11-13T11:46:26.315Z,7748
2016-11-13T11:47:26.295Z,7724
2016-11-13T11:48:36.863Z,7708
2016-11-13T11:49:28.854Z,7700
2016-11-13T11:50:29.374Z,7688
2016-11-13T11:51:26.621Z,7684
2016-11-13T11:52:26.352Z,7668
2016-11-13T11:53:27.179Z,7656
2016-11-13T11:54:26.366Z,7632
2016-11-13T11:55:26.364Z,7596
2016-11-13T11:56:26.549Z,7552
2016-11-13T11:57:26.351Z,7476
2016-11-13T11:58:26.386Z,7376
2016-11-13T11:59:26.373Z,7256
2016-11-13T12:00:26.360Z,7140
2016-11-13T12:01:26.297Z,7056
2016-11-13T12:02:26.318Z,6992
2016-11-13T12:03:26.337Z,6940
2016-11-13T12:04:27.061Z,6880
2016-11-13T12:05:27.246Z,6804
2016-11-13T12:06:26.798Z,6704
2016-11-13T12:07:26.344Z,6588
2016-11-13T12:08:26.322Z,6468
2016-11-13T12:09:26.740Z,6368
2016-11-13T12:10:26.705Z,5544
2016-11-13T12:11:26.332Z,5468
2016-11-13T12:12:26.848Z,5396
2016-11-13T12:13:26.856Z,5328
2016-11-13T12:14:26.893Z,5268
2016-11-13T12:15:26.415Z,5224
2016-11-13T12:16:26.355Z,5172
2016-11-13T12:17:27.118Z,5124
2016-11-13T12:18:27.346Z,5084
2016-11-13T12:19:27.242Z,5056
2016-11-13T12:20:26.398Z,5048
2016-11-13T12:21:26.329Z,5056
2016-11-13T12:22:26.652Z,5076
2016-11-13T12:23:26.427Z,5820
2016-11-13T12:24:26.373Z,5868
2016-11-13T12:25:26.381Z,5928
2016-11-13T12:26:26.712Z,6004
2016-11-13T12:27:27.089Z,6088
2016-11-13T12:28:27.066Z,6168
2016-11-13T12:29:26.380Z,6244
2016-11-13T12:30:27.408Z,6312
2016-11-13T12:31:26.636Z,6372
2016-11-13T12:32:26.421Z,6412
2016-11-13T12:33:26.854Z,6424
2016-11-13T12:34:26.388Z,6412
2016-11-13T12:35:26.691Z,6380
2016-11-13T12:36:26.391Z,6332
2016-11-13T12:37:26.641Z,6284
2016-11-13T12:38:27.059Z,6228
2016-11-13T12:39:26.433Z,6164
2016-11-13T12:40:26.375Z,6096
2016-11-13T12:41:26.374Z,6016
2016-11-13T12:42:26.385Z,5948
2016-11-13T12:43:26.345Z,5900
2016-11-13T12:44:26.675Z,5868
2016-11-13T12:45:26.433Z,5836
2016-11-13T12:46:26.394Z,5804
2016-11-13T12:47:26.389Z,5772
2016-11-13T12:48:26.960Z,5736
2016-11-13T12:49:26.443Z,5708
2016-11-13T12:50:26.485Z,5676
2016-11-13T12:51:26.447Z,5628
2016-11-13T12:52:26.365Z,5560
2016-11-13T12:53:26.401Z,5480
2016-11-13T12:54:26.429Z,5376
2016-11-13T12:55:26.393Z,5264
2016-11-13T12:56:26.425Z,5152
2016-11-13T12:57:26.429Z,5052
2016-11-13T12:58:26.749Z,4956
2016-11-13T12:59:26.417Z,4872
2016-11-13T13:00:26.468Z,4796
2016-11-13T13:01:26.409Z,4736
2016-11-13T13:02:26.726Z,4676
2016-11-13T13:03:26.554Z,4636
2016-11-13T13:04:26.372Z,4612
2016-11-13T13:05:26.772Z,4600
2016-11-13T13:06:26.470Z,4592
2016-11-13T13:07:26.425Z,4584
2016-11-13T13:08:26.411Z,4576
2016-11-13T13:09:26.428Z,4564
2016-11-13T13:10:26.472Z,4556
2016-11-13T13:11:26.535Z,4540
2016-11-13T13:12:26.410Z,4528
2016-11-13T13:13:26.405Z,4508
2016-11-13T13:14:26.653Z,4484
2016-11-13T13:15:26.461Z,4460
2016-11-13T13:16:26.528Z,4432
2016-11-13T13:17:26.445Z,4408
2016-11-13T13:18:26.488Z,4368
2016-11-13T13:19:26.442Z,4336
2016-11-13T13:20:26.466Z,4300
2016-11-13T13:21:26.413Z,4260
2016-11-13T13:22:26.392Z,4216
2016-11-13T13:23:26.404Z,4168
2016-11-13T13:24:26.386Z,4112
2016-11-13T13:25:26.423Z,4048
2016-11-13T13:26:26.460Z,3972
2016-11-13T13:27:26.401Z,3888
2016-11-13T13:28:26.506Z,3800
2016-11-13T13:29:26.444Z,3708
2016-11-13T13:30:26.459Z,3616
2016-11-13T13:31:26.425Z,3528
2016-11-13T13:32:26.477Z,3444
2016-11-13T13:33:26.597Z,3368
2016-11-13T13:34:26.477Z,3292
2016-11-13T13:35:27.487Z,3224
2016-11-13T13:36:26.649Z,3168
2016-11-13T13:37:26.452Z,3116
2016-11-13T13:38:26.444Z,3068
2016-11-13T13:39:26.430Z,3036
2016-11-13T13:40:26.528Z,3000
2016-11-13T13:41:26.438Z,2972
2016-11-13T13:42:26.468Z,2944
2016-11-13T13:43:26.495Z,2916
2016-11-13T13:44:26.425Z,2896
2016-11-13T13:45:26.604Z,2876
2016-11-13T13:46:26.424Z,2852
2016-11-13T13:47:26.712Z,2828
2016-11-13T13:48:26.504Z,2800
2016-11-13T13:49:27.419Z,2772
2016-11-13T13:50:26.421Z,2736
2016-11-13T13:51:26.444Z,2696
2016-11-13T13:52:26.470Z,2660
2016-11-13T13:53:26.545Z,2616
2016-11-13T13:54:26.424Z,2576
2016-11-13T13:55:26.473Z,2540
2016-11-13T13:56:26.451Z,2496
2016-11-13T13:57:26.527Z,2460
2016-11-13T13:58:26.482Z,2424
2016-11-13T13:59:26.585Z,2392